sensor_id;sensor_type;location;lat;lon;timestamp;P1;durP1;ratioP1;P2;durP2;ratioP2
69754;SDS011;57023;52.218;5.158;2024-01-25T00:01:54;16.83;;;3.70;;
69754;SDS011;57023;52.218;5.158;2024-01-25T00:04:19;23.20;;;4.97;;
69754;SDS011;57023;52.218;5.158;2024-01-25T00:06:45;23.58;;;4.05;;
69754;SDS011;57023;52.218;5.158;2024-01-25T00:09:10;24.45;;;4.60;;
69754;SDS011;57023;52.218;5.158;2024-01-25T00:11:35;23.85;;;4.20;;
69754;SDS011;57023;52.218;5.158;2024-01-25T00:14:01;21.55;;;4.18;;
69754;SDS011;57023;52.218;5.158;2024-01-25T00:16:27;31.35;;;5.00;;
69754;SDS011;57023;52.218;5.158;2024-01-25T00:18:52;27.52;;;5.28;;
69754;SDS011;57023;52.218;5.158;2024-01-25T00:21:17;28.20;;;4.45;;
69754;SDS011;57023;52.218;5.158;2024-01-25T00:23:43;18.88;;;4.47;;
69754;SDS011;57023;52.218;5.158;2024-01-25T00:26:08;24.45;;;4.50;;
69754;SDS011;57023;52.218;5.158;2024-01-25T00:28:33;23.90;;;4.25;;
69754;SDS011;57023;52.218;5.158;2024-01-25T00:30:59;27.13;;;4.50;;
69754;SDS011;57023;52.218;5.158;2024-01-25T00:33:24;21.63;;;4.63;;
69754;SDS011;57023;52.218;5.158;2024-01-25T00:35:50;22.80;;;5.05;;
69754;SDS011;57023;52.218;5.158;2024-01-25T00:38:18;31.38;;;5.28;;
69754;SDS011;57023;52.218;5.158;2024-01-25T00:40:43;20.08;;;4.45;;
69754;SDS011;57023;52.218;5.158;2024-01-25T00:43:09;22.75;;;4.18;;
69754;SDS011;57023;52.218;5.158;2024-01-25T00:45:34;23.70;;;4.22;;
69754;SDS011;57023;52.218;5.158;2024-01-25T00:48:00;23.63;;;4.55;;
69754;SDS011;57023;52.218;5.158;2024-01-25T00:50:25;27.42;;;4.97;;
69754;SDS011;57023;52.218;5.158;2024-01-25T00:52:51;23.73;;;4.47;;
69754;SDS011;57023;52.218;5.158;2024-01-25T00:55:17;30.58;;;4.90;;
69754;SDS011;57023;52.218;5.158;2024-01-25T00:57:43;21.42;;;4.40;;
69754;SDS011;57023;52.218;5.158;2024-01-25T01:00:09;30.42;;;5.20;;
69754;SDS011;57023;52.218;5.158;2024-01-25T01:02:39;19.92;;;5.07;;
69754;SDS011;57023;52.218;5.158;2024-01-25T01:05:05;26.23;;;4.80;;
69754;SDS011;57023;52.218;5.158;2024-01-25T01:07:31;22.23;;;4.20;;
69754;SDS011;57023;52.218;5.158;2024-01-25T01:09:56;26.15;;;5.35;;
69754;SDS011;57023;52.218;5.158;2024-01-25T01:12:22;18.95;;;5.25;;
69754;SDS011;57023;52.218;5.158;2024-01-25T01:14:47;31.05;;;5.13;;
69754;SDS011;57023;52.218;5.158;2024-01-25T01:17:13;28.23;;;5.22;;
69754;SDS011;57023;52.218;5.158;2024-01-25T01:19:38;23.63;;;4.82;;
69754;SDS011;57023;52.218;5.158;2024-01-25T01:22:03;28.55;;;4.90;;
69754;SDS011;57023;52.218;5.158;2024-01-25T01:24:29;21.40;;;5.10;;
69754;SDS011;57023;52.218;5.158;2024-01-25T01:26:54;22.33;;;5.18;;
69754;SDS011;57023;52.218;5.158;2024-01-25T01:29:19;24.08;;;5.00;;
69754;SDS011;57023;52.218;5.158;2024-01-25T01:31:45;26.33;;;4.88;;
69754;SDS011;57023;52.218;5.158;2024-01-25T01:34:11;25.05;;;5.32;;
69754;SDS011;57023;52.218;5.158;2024-01-25T01:36:38;24.67;;;4.85;;
69754;SDS011;57023;52.218;5.158;2024-01-25T01:39:03;30.88;;;5.65;;
69754;SDS011;57023;52.218;5.158;2024-01-25T01:41:29;24.10;;;4.78;;
69754;SDS011;57023;52.218;5.158;2024-01-25T01:43:54;20.40;;;4.80;;
69754;SDS011;57023;52.218;5.158;2024-01-25T01:46:36;25.70;;;4.93;;
69754;SDS011;57023;52.218;5.158;2024-01-25T01:49:06;23.27;;;4.82;;
69754;SDS011;57023;52.218;5.158;2024-01-25T01:51:32;20.70;;;4.50;;
69754;SDS011;57023;52.218;5.158;2024-01-25T01:53:58;23.65;;;4.90;;
69754;SDS011;57023;52.218;5.158;2024-01-25T01:56:26;21.55;;;4.95;;
69754;SDS011;57023;52.218;5.158;2024-01-25T01:58:52;31.60;;;5.00;;
69754;SDS011;57023;52.218;5.158;2024-01-25T02:01:19;21.58;;;4.72;;
69754;SDS011;57023;52.218;5.158;2024-01-25T02:03:45;22.98;;;4.43;;
69754;SDS011;57023;52.218;5.158;2024-01-25T02:06:10;33.67;;;5.72;;
69754;SDS011;57023;52.218;5.158;2024-01-25T02:08:35;24.55;;;5.30;;
69754;SDS011;57023;52.218;5.158;2024-01-25T02:11:01;19.15;;;3.95;;
69754;SDS011;57023;52.218;5.158;2024-01-25T02:13:27;29.33;;;5.03;;
69754;SDS011;57023;52.218;5.158;2024-01-25T02:15:52;24.10;;;5.20;;
69754;SDS011;57023;52.218;5.158;2024-01-25T02:18:20;23.55;;;4.63;;
69754;SDS011;57023;52.218;5.158;2024-01-25T02:20:46;26.17;;;4.57;;
69754;SDS011;57023;52.218;5.158;2024-01-25T02:23:11;27.08;;;5.43;;
69754;SDS011;57023;52.218;5.158;2024-01-25T02:25:36;26.23;;;5.20;;
69754;SDS011;57023;52.218;5.158;2024-01-25T02:28:02;29.25;;;5.25;;
69754;SDS011;57023;52.218;5.158;2024-01-25T02:30:27;27.98;;;4.75;;
69754;SDS011;57023;52.218;5.158;2024-01-25T02:32:52;23.70;;;5.10;;
69754;SDS011;57023;52.218;5.158;2024-01-25T02:35:18;22.85;;;5.00;;
69754;SDS011;57023;52.218;5.158;2024-01-25T02:37:43;27.33;;;6.05;;
69754;SDS011;57023;52.218;5.158;2024-01-25T02:40:11;36.63;;;5.43;;
69754;SDS011;57023;52.218;5.158;2024-01-25T02:42:37;24.77;;;4.85;;
69754;SDS011;57023;52.218;5.158;2024-01-25T02:45:02;24.67;;;5.97;;
69754;SDS011;57023;52.218;5.158;2024-01-25T02:47:28;26.23;;;6.10;;
69754;SDS011;57023;52.218;5.158;2024-01-25T02:49:53;24.63;;;5.13;;
69754;SDS011;57023;52.218;5.158;2024-01-25T02:52:18;25.60;;;5.20;;
69754;SDS011;57023;52.218;5.158;2024-01-25T02:54:44;26.80;;;4.50;;
69754;SDS011;57023;52.218;5.158;2024-01-25T02:57:09;24.92;;;4.72;;
69754;SDS011;57023;52.218;5.158;2024-01-25T02:59:35;24.25;;;4.60;;
69754;SDS011;57023;52.218;5.158;2024-01-25T03:02:00;30.27;;;5.18;;
69754;SDS011;57023;52.218;5.158;2024-01-25T03:04:25;26.30;;;5.32;;
69754;SDS011;57023;52.218;5.158;2024-01-25T03:06:51;31.73;;;6.75;;
69754;SDS011;57023;52.218;5.158;2024-01-25T03:09:16;28.13;;;5.18;;
69754;SDS011;57023;52.218;5.158;2024-01-25T03:11:41;28.50;;;4.82;;
69754;SDS011;57023;52.218;5.158;2024-01-25T03:14:06;32.25;;;5.70;;
69754;SDS011;57023;52.218;5.158;2024-01-25T03:16:32;27.35;;;4.97;;
69754;SDS011;57023;52.218;5.158;2024-01-25T03:18:57;22.58;;;4.72;;
69754;SDS011;57023;52.218;5.158;2024-01-25T03:21:22;22.25;;;4.47;;
69754;SDS011;57023;52.218;5.158;2024-01-25T03:23:48;24.17;;;5.07;;
69754;SDS011;57023;52.218;5.158;2024-01-25T03:26:13;17.83;;;3.97;;
69754;SDS011;57023;52.218;5.158;2024-01-25T03:28:39;27.40;;;4.90;;
69754;SDS011;57023;52.218;5.158;2024-01-25T03:31:05;27.58;;;5.07;;
69754;SDS011;57023;52.218;5.158;2024-01-25T03:33:30;24.38;;;5.10;;
69754;SDS011;57023;52.218;5.158;2024-01-25T03:35:58;23.35;;;4.70;;
69754;SDS011;57023;52.218;5.158;2024-01-25T03:38:27;19.98;;;4.45;;
69754;SDS011;57023;52.218;5.158;2024-01-25T03:40:52;23.40;;;4.78;;
69754;SDS011;57023;52.218;5.158;2024-01-25T03:43:18;25.90;;;4.88;;
69754;SDS011;57023;52.218;5.158;2024-01-25T03:45:43;17.95;;;4.72;;
69754;SDS011;57023;52.218;5.158;2024-01-25T03:48:08;25.60;;;4.43;;
69754;SDS011;57023;52.218;5.158;2024-01-25T03:50:34;23.83;;;4.47;;
69754;SDS011;57023;52.218;5.158;2024-01-25T03:52:59;26.88;;;5.03;;
69754;SDS011;57023;52.218;5.158;2024-01-25T03:55:24;31.80;;;5.20;;
69754;SDS011;57023;52.218;5.158;2024-01-25T03:57:50;30.90;;;5.57;;
69754;SDS011;57023;52.218;5.158;2024-01-25T04:00:15;30.63;;;5.05;;
69754;SDS011;57023;52.218;5.158;2024-01-25T04:02:40;27.75;;;5.30;;
69754;SDS011;57023;52.218;5.158;2024-01-25T04:05:06;29.05;;;5.50;;
69754;SDS011;57023;52.218;5.158;2024-01-25T04:07:31;28.20;;;4.72;;
69754;SDS011;57023;52.218;5.158;2024-01-25T04:09:57;26.05;;;5.28;;
69754;SDS011;57023;52.218;5.158;2024-01-25T04:12:22;24.33;;;4.78;;
69754;SDS011;57023;52.218;5.158;2024-01-25T04:14:49;27.60;;;5.00;;
69754;SDS011;57023;52.218;5.158;2024-01-25T04:17:15;33.88;;;5.35;;
69754;SDS011;57023;52.218;5.158;2024-01-25T04:19:40;23.42;;;4.90;;
69754;SDS011;57023;52.218;5.158;2024-01-25T04:22:05;28.00;;;5.07;;
69754;SDS011;57023;52.218;5.158;2024-01-25T04:24:31;22.92;;;4.60;;
69754;SDS011;57023;52.218;5.158;2024-01-25T04:26:56;27.27;;;4.97;;
69754;SDS011;57023;52.218;5.158;2024-01-25T04:29:21;24.40;;;4.60;;
69754;SDS011;57023;52.218;5.158;2024-01-25T04:31:47;29.05;;;4.78;;
69754;SDS011;57023;52.218;5.158;2024-01-25T04:34:13;22.13;;;4.43;;
69754;SDS011;57023;52.218;5.158;2024-01-25T04:36:39;24.85;;;4.85;;
69754;SDS011;57023;52.218;5.158;2024-01-25T04:39:04;29.75;;;4.60;;
69754;SDS011;57023;52.218;5.158;2024-01-25T04:41:30;23.25;;;5.88;;
69754;SDS011;57023;52.218;5.158;2024-01-25T04:43:55;30.23;;;5.65;;
69754;SDS011;57023;52.218;5.158;2024-01-25T04:46:21;24.90;;;5.70;;
69754;SDS011;57023;52.218;5.158;2024-01-25T04:48:46;24.85;;;4.80;;
69754;SDS011;57023;52.218;5.158;2024-01-25T04:51:15;24.30;;;4.63;;
69754;SDS011;57023;52.218;5.158;2024-01-25T04:53:43;27.92;;;5.50;;
69754;SDS011;57023;52.218;5.158;2024-01-25T04:56:09;16.52;;;4.30;;
69754;SDS011;57023;52.218;5.158;2024-01-25T04:58:34;27.52;;;5.75;;
69754;SDS011;57023;52.218;5.158;2024-01-25T05:00:59;26.70;;;5.45;;
69754;SDS011;57023;52.218;5.158;2024-01-25T05:03:25;20.65;;;4.75;;
69754;SDS011;57023;52.218;5.158;2024-01-25T05:05:50;25.27;;;5.07;;
69754;SDS011;57023;52.218;5.158;2024-01-25T05:08:15;29.42;;;5.32;;
69754;SDS011;57023;52.218;5.158;2024-01-25T05:10:41;27.83;;;4.90;;
69754;SDS011;57023;52.218;5.158;2024-01-25T05:13:06;34.25;;;5.72;;
69754;SDS011;57023;52.218;5.158;2024-01-25T05:15:32;20.05;;;4.32;;
69754;SDS011;57023;52.218;5.158;2024-01-25T05:17:57;24.75;;;4.80;;
69754;SDS011;57023;52.218;5.158;2024-01-25T05:20:22;33.20;;;4.88;;
69754;SDS011;57023;52.218;5.158;2024-01-25T05:22:48;26.33;;;5.18;;
69754;SDS011;57023;52.218;5.158;2024-01-25T05:25:13;25.48;;;4.90;;
69754;SDS011;57023;52.218;5.158;2024-01-25T05:27:39;25.98;;;5.88;;
69754;SDS011;57023;52.218;5.158;2024-01-25T05:30:04;24.65;;;5.40;;
69754;SDS011;57023;52.218;5.158;2024-01-25T05:32:30;24.13;;;5.05;;
69754;SDS011;57023;52.218;5.158;2024-01-25T05:34:55;32.88;;;5.45;;
69754;SDS011;57023;52.218;5.158;2024-01-25T05:37:21;28.77;;;5.20;;
69754;SDS011;57023;52.218;5.158;2024-01-25T05:39:46;32.47;;;5.57;;
69754;SDS011;57023;52.218;5.158;2024-01-25T05:42:11;28.33;;;5.30;;
69754;SDS011;57023;52.218;5.158;2024-01-25T05:44:39;29.85;;;5.63;;
69754;SDS011;57023;52.218;5.158;2024-01-25T05:47:05;30.23;;;5.55;;
69754;SDS011;57023;52.218;5.158;2024-01-25T05:49:30;29.77;;;6.03;;
69754;SDS011;57023;52.218;5.158;2024-01-25T05:51:55;11.57;;;3.65;;
69754;SDS011;57023;52.218;5.158;2024-01-25T05:54:20;21.63;;;4.85;;
69754;SDS011;57023;52.218;5.158;2024-01-25T05:56:46;28.15;;;5.20;;
69754;SDS011;57023;52.218;5.158;2024-01-25T05:59:12;26.27;;;5.18;;
69754;SDS011;57023;52.218;5.158;2024-01-25T06:01:37;41.15;;;6.40;;
69754;SDS011;57023;52.218;5.158;2024-01-25T06:04:05;25.73;;;5.80;;
69754;SDS011;57023;52.218;5.158;2024-01-25T06:06:30;26.45;;;5.72;;
69754;SDS011;57023;52.218;5.158;2024-01-25T06:08:55;31.08;;;5.75;;
69754;SDS011;57023;52.218;5.158;2024-01-25T06:11:21;33.03;;;5.97;;
69754;SDS011;57023;52.218;5.158;2024-01-25T06:13:46;29.65;;;6.05;;
69754;SDS011;57023;52.218;5.158;2024-01-25T06:16:11;30.15;;;6.35;;
69754;SDS011;57023;52.218;5.158;2024-01-25T06:18:37;30.75;;;5.57;;
69754;SDS011;57023;52.218;5.158;2024-01-25T06:21:02;27.75;;;5.25;;
69754;SDS011;57023;52.218;5.158;2024-01-25T06:23:27;28.65;;;7.03;;
69754;SDS011;57023;52.218;5.158;2024-01-25T06:25:53;32.58;;;6.35;;
69754;SDS011;57023;52.218;5.158;2024-01-25T06:28:18;35.45;;;6.32;;
69754;SDS011;57023;52.218;5.158;2024-01-25T06:30:44;30.15;;;6.03;;
69754;SDS011;57023;52.218;5.158;2024-01-25T06:33:09;28.73;;;5.97;;
69754;SDS011;57023;52.218;5.158;2024-01-25T06:35:35;26.65;;;5.38;;
69754;SDS011;57023;52.218;5.158;2024-01-25T06:38:00;28.02;;;6.72;;
69754;SDS011;57023;52.218;5.158;2024-01-25T06:40:25;32.10;;;6.53;;
69754;SDS011;57023;52.218;5.158;2024-01-25T06:42:50;25.88;;;6.03;;
69754;SDS011;57023;52.218;5.158;2024-01-25T06:45:16;32.50;;;7.40;;
69754;SDS011;57023;52.218;5.158;2024-01-25T06:47:42;30.20;;;6.07;;
69754;SDS011;57023;52.218;5.158;2024-01-25T06:50:08;33.35;;;7.15;;
69754;SDS011;57023;52.218;5.158;2024-01-25T06:52:33;28.30;;;6.75;;
69754;SDS011;57023;52.218;5.158;2024-01-25T06:54:59;32.08;;;7.38;;
69754;SDS011;57023;52.218;5.158;2024-01-25T06:57:24;31.85;;;7.25;;
69754;SDS011;57023;52.218;5.158;2024-01-25T06:59:49;32.10;;;6.82;;
69754;SDS011;57023;52.218;5.158;2024-01-25T07:02:15;24.27;;;6.28;;
69754;SDS011;57023;52.218;5.158;2024-01-25T07:04:40;29.35;;;6.40;;
69754;SDS011;57023;52.218;5.158;2024-01-25T07:07:05;31.15;;;7.00;;
69754;SDS011;57023;52.218;5.158;2024-01-25T07:09:31;34.78;;;7.63;;
69754;SDS011;57023;52.218;5.158;2024-01-25T07:11:56;58.50;;;14.43;;
69754;SDS011;57023;52.218;5.158;2024-01-25T07:14:22;68.10;;;21.05;;
69754;SDS011;57023;52.218;5.158;2024-01-25T07:16:47;68.30;;;18.95;;
69754;SDS011;57023;52.218;5.158;2024-01-25T07:19:13;32.85;;;9.57;;
69754;SDS011;57023;52.218;5.158;2024-01-25T07:21:39;31.45;;;6.97;;
69754;SDS011;57023;52.218;5.158;2024-01-25T07:24:05;16.90;;;5.60;;
69754;SDS011;57023;52.218;5.158;2024-01-25T07:26:31;35.58;;;8.02;;
69754;SDS011;57023;52.218;5.158;2024-01-25T07:28:56;34.42;;;7.28;;
69754;SDS011;57023;52.218;5.158;2024-01-25T07:31:27;25.27;;;7.03;;
69754;SDS011;57023;52.218;5.158;2024-01-25T07:33:53;37.67;;;7.60;;
69754;SDS011;57023;52.218;5.158;2024-01-25T07:36:18;34.17;;;7.70;;
69754;SDS011;57023;52.218;5.158;2024-01-25T07:38:44;31.80;;;7.18;;
69754;SDS011;57023;52.218;5.158;2024-01-25T07:41:11;32.97;;;6.88;;
69754;SDS011;57023;52.218;5.158;2024-01-25T07:43:37;31.45;;;7.82;;
69754;SDS011;57023;52.218;5.158;2024-01-25T07:46:02;36.25;;;7.22;;
69754;SDS011;57023;52.218;5.158;2024-01-25T07:48:27;32.42;;;7.80;;
69754;SDS011;57023;52.218;5.158;2024-01-25T07:50:53;32.03;;;6.68;;
69754;SDS011;57023;52.218;5.158;2024-01-25T07:53:18;32.08;;;7.80;;
69754;SDS011;57023;52.218;5.158;2024-01-25T07:55:43;20.42;;;5.50;;
69754;SDS011;57023;52.218;5.158;2024-01-25T07:58:09;32.92;;;6.43;;
69754;SDS011;57023;52.218;5.158;2024-01-25T08:00:34;29.73;;;6.28;;
69754;SDS011;57023;52.218;5.158;2024-01-25T08:02:59;35.38;;;8.40;;
69754;SDS011;57023;52.218;5.158;2024-01-25T08:05:25;25.58;;;6.65;;
69754;SDS011;57023;52.218;5.158;2024-01-25T08:07:51;33.17;;;8.20;;
69754;SDS011;57023;52.218;5.158;2024-01-25T08:10:16;30.17;;;7.80;;
69754;SDS011;57023;52.218;5.158;2024-01-25T08:12:41;27.90;;;6.90;;
69754;SDS011;57023;52.218;5.158;2024-01-25T08:15:09;32.03;;;8.00;;
69754;SDS011;57023;52.218;5.158;2024-01-25T08:17:35;41.95;;;8.77;;
69754;SDS011;57023;52.218;5.158;2024-01-25T08:20:02;33.13;;;10.25;;
69754;SDS011;57023;52.218;5.158;2024-01-25T08:22:27;15.02;;;5.30;;
69754;SDS011;57023;52.218;5.158;2024-01-25T08:24:53;30.80;;;8.15;;
69754;SDS011;57023;52.218;5.158;2024-01-25T08:27:18;41.03;;;11.60;;
69754;SDS011;57023;52.218;5.158;2024-01-25T08:29:44;35.63;;;10.65;;
69754;SDS011;57023;52.218;5.158;2024-01-25T08:32:10;43.92;;;11.20;;
69754;SDS011;57023;52.218;5.158;2024-01-25T08:34:35;39.58;;;10.60;;
69754;SDS011;57023;52.218;5.158;2024-01-25T08:37:00;34.70;;;9.82;;
69754;SDS011;57023;52.218;5.158;2024-01-25T08:39:26;17.42;;;5.38;;
69754;SDS011;57023;52.218;5.158;2024-01-25T08:41:51;32.97;;;9.77;;
69754;SDS011;57023;52.218;5.158;2024-01-25T08:44:16;38.65;;;10.40;;
69754;SDS011;57023;52.218;5.158;2024-01-25T08:46:43;31.75;;;8.90;;
69754;SDS011;57023;52.218;5.158;2024-01-25T08:49:08;41.08;;;10.98;;
69754;SDS011;57023;52.218;5.158;2024-01-25T08:51:35;38.45;;;10.50;;
69754;SDS011;57023;52.218;5.158;2024-01-25T08:54:00;38.38;;;11.77;;
69754;SDS011;57023;52.218;5.158;2024-01-25T08:56:26;36.47;;;10.60;;
69754;SDS011;57023;52.218;5.158;2024-01-25T08:58:51;31.35;;;10.65;;
69754;SDS011;57023;52.218;5.158;2024-01-25T09:01:17;33.25;;;9.98;;
69754;SDS011;57023;52.218;5.158;2024-01-25T09:03:43;38.38;;;10.02;;
69754;SDS011;57023;52.218;5.158;2024-01-25T09:06:08;23.50;;;7.75;;
69754;SDS011;57023;52.218;5.158;2024-01-25T09:08:34;29.83;;;7.80;;
69754;SDS011;57023;52.218;5.158;2024-01-25T09:10:59;27.00;;;9.52;;
69754;SDS011;57023;52.218;5.158;2024-01-25T09:13:25;30.85;;;7.40;;
69754;SDS011;57023;52.218;5.158;2024-01-25T09:15:50;30.60;;;7.78;;
69754;SDS011;57023;52.218;5.158;2024-01-25T09:18:15;36.08;;;8.73;;
69754;SDS011;57023;52.218;5.158;2024-01-25T09:20:41;34.88;;;8.80;;
69754;SDS011;57023;52.218;5.158;2024-01-25T09:23:09;28.00;;;8.23;;
69754;SDS011;57023;52.218;5.158;2024-01-25T09:25:35;36.08;;;8.35;;
69754;SDS011;57023;52.218;5.158;2024-01-25T09:28:00;28.67;;;7.82;;
69754;SDS011;57023;52.218;5.158;2024-01-25T09:30:26;39.33;;;8.88;;
69754;SDS011;57023;52.218;5.158;2024-01-25T09:32:51;27.30;;;8.38;;
69754;SDS011;57023;52.218;5.158;2024-01-25T09:35:17;32.90;;;7.43;;
69754;SDS011;57023;52.218;5.158;2024-01-25T09:37:42;26.98;;;7.82;;
69754;SDS011;57023;52.218;5.158;2024-01-25T09:40:08;26.30;;;7.50;;
69754;SDS011;57023;52.218;5.158;2024-01-25T09:42:34;28.40;;;7.03;;
69754;SDS011;57023;52.218;5.158;2024-01-25T09:45:01;33.58;;;7.88;;
69754;SDS011;57023;52.218;5.158;2024-01-25T09:47:26;25.52;;;6.13;;
69754;SDS011;57023;52.218;5.158;2024-01-25T09:49:52;21.45;;;6.97;;
69754;SDS011;57023;52.218;5.158;2024-01-25T09:52:17;24.25;;;5.82;;
69754;SDS011;57023;52.218;5.158;2024-01-25T09:54:44;27.60;;;7.38;;
69754;SDS011;57023;52.218;5.158;2024-01-25T09:57:13;37.63;;;8.73;;
69754;SDS011;57023;52.218;5.158;2024-01-25T09:59:42;30.00;;;8.20;;
69754;SDS011;57023;52.218;5.158;2024-01-25T10:02:08;27.77;;;8.00;;
69754;SDS011;57023;52.218;5.158;2024-01-25T10:04:34;24.75;;;8.25;;
69754;SDS011;57023;52.218;5.158;2024-01-25T10:06:59;26.88;;;7.30;;
69754;SDS011;57023;52.218;5.158;2024-01-25T10:09:25;34.40;;;7.70;;
69754;SDS011;57023;52.218;5.158;2024-01-25T10:11:50;27.95;;;7.10;;
69754;SDS011;57023;52.218;5.158;2024-01-25T10:14:15;31.35;;;7.35;;
69754;SDS011;57023;52.218;5.158;2024-01-25T10:16:41;27.38;;;7.22;;
69754;SDS011;57023;52.218;5.158;2024-01-25T10:19:06;26.42;;;6.60;;
69754;SDS011;57023;52.218;5.158;2024-01-25T10:21:32;27.98;;;7.60;;
69754;SDS011;57023;52.218;5.158;2024-01-25T10:23:58;28.58;;;6.22;;
69754;SDS011;57023;52.218;5.158;2024-01-25T10:26:26;24.33;;;6.90;;
69754;SDS011;57023;52.218;5.158;2024-01-25T10:28:55;16.45;;;5.18;;
69754;SDS011;57023;52.218;5.158;2024-01-25T10:31:24;30.48;;;7.47;;
69754;SDS011;57023;52.218;5.158;2024-01-25T10:33:51;22.98;;;6.05;;
69754;SDS011;57023;52.218;5.158;2024-01-25T10:36:18;30.10;;;7.22;;
69754;SDS011;57023;52.218;5.158;2024-01-25T10:38:45;27.20;;;7.28;;
69754;SDS011;57023;52.218;5.158;2024-01-25T10:41:13;24.17;;;4.60;;
69754;SDS011;57023;52.218;5.158;2024-01-25T10:43:38;31.02;;;7.90;;
69754;SDS011;57023;52.218;5.158;2024-01-25T10:46:04;29.48;;;8.50;;
69754;SDS011;57023;52.218;5.158;2024-01-25T10:48:29;14.60;;;4.82;;
69754;SDS011;57023;52.218;5.158;2024-01-25T10:50:55;26.83;;;6.53;;
69754;SDS011;57023;52.218;5.158;2024-01-25T10:53:21;24.75;;;6.50;;
69754;SDS011;57023;52.218;5.158;2024-01-25T10:55:47;21.10;;;5.57;;
69754;SDS011;57023;52.218;5.158;2024-01-25T10:58:13;28.95;;;6.72;;
69754;SDS011;57023;52.218;5.158;2024-01-25T11:00:38;33.65;;;7.18;;
69754;SDS011;57023;52.218;5.158;2024-01-25T11:03:04;28.27;;;7.22;;
69754;SDS011;57023;52.218;5.158;2024-01-25T11:05:30;24.87;;;6.83;;
69754;SDS011;57023;52.218;5.158;2024-01-25T11:07:56;24.65;;;6.65;;
69754;SDS011;57023;52.218;5.158;2024-01-25T11:10:22;29.90;;;6.93;;
69754;SDS011;57023;52.218;5.158;2024-01-25T11:12:59;16.20;;;5.10;;
69754;SDS011;57023;52.218;5.158;2024-01-25T11:15:32;24.08;;;6.20;;
69754;SDS011;57023;52.218;5.158;2024-01-25T11:17:58;22.55;;;6.35;;
69754;SDS011;57023;52.218;5.158;2024-01-25T11:20:24;22.60;;;6.55;;
69754;SDS011;57023;52.218;5.158;2024-01-25T11:22:59;28.95;;;6.35;;
69754;SDS011;57023;52.218;5.158;2024-01-25T11:25:27;26.02;;;6.72;;
69754;SDS011;57023;52.218;5.158;2024-01-25T11:27:53;25.20;;;6.80;;
69754;SDS011;57023;52.218;5.158;2024-01-25T11:30:19;29.25;;;6.78;;
69754;SDS011;57023;52.218;5.158;2024-01-25T11:32:48;26.20;;;7.25;;
69754;SDS011;57023;52.218;5.158;2024-01-25T11:35:14;31.15;;;7.53;;
69754;SDS011;57023;52.218;5.158;2024-01-25T11:37:48;24.08;;;7.15;;
69754;SDS011;57023;52.218;5.158;2024-01-25T11:40:15;26.35;;;7.45;;
69754;SDS011;57023;52.218;5.158;2024-01-25T11:42:45;28.15;;;7.70;;
69754;SDS011;57023;52.218;5.158;2024-01-25T11:45:13;23.77;;;5.78;;
69754;SDS011;57023;52.218;5.158;2024-01-25T11:47:39;27.13;;;8.43;;
69754;SDS011;57023;52.218;5.158;2024-01-25T11:50:06;25.92;;;7.28;;
69754;SDS011;57023;52.218;5.158;2024-01-25T11:52:32;22.83;;;6.68;;
69754;SDS011;57023;52.218;5.158;2024-01-25T11:54:59;29.17;;;7.13;;
69754;SDS011;57023;52.218;5.158;2024-01-25T11:57:26;29.98;;;7.93;;
69754;SDS011;57023;52.218;5.158;2024-01-25T11:59:51;24.75;;;7.65;;
69754;SDS011;57023;52.218;5.158;2024-01-25T12:02:17;25.00;;;8.20;;
69754;SDS011;57023;52.218;5.158;2024-01-25T12:04:42;26.92;;;7.35;;
69754;SDS011;57023;52.218;5.158;2024-01-25T12:07:08;31.65;;;9.02;;
69754;SDS011;57023;52.218;5.158;2024-01-25T12:09:33;25.63;;;8.13;;
69754;SDS011;57023;52.218;5.158;2024-01-25T12:12:01;31.10;;;7.90;;
69754;SDS011;57023;52.218;5.158;2024-01-25T12:14:27;35.45;;;7.90;;
69754;SDS011;57023;52.218;5.158;2024-01-25T12:16:55;29.52;;;8.60;;
69754;SDS011;57023;52.218;5.158;2024-01-25T12:19:20;29.02;;;7.50;;
69754;SDS011;57023;52.218;5.158;2024-01-25T12:21:46;12.90;;;4.75;;
69754;SDS011;57023;52.218;5.158;2024-01-25T12:24:12;26.55;;;7.22;;
69754;SDS011;57023;52.218;5.158;2024-01-25T12:26:37;21.95;;;6.82;;
69754;SDS011;57023;52.218;5.158;2024-01-25T12:29:02;21.73;;;5.65;;
69754;SDS011;57023;52.218;5.158;2024-01-25T12:31:28;27.67;;;7.35;;
69754;SDS011;57023;52.218;5.158;2024-01-25T12:33:53;18.30;;;6.72;;
69754;SDS011;57023;52.218;5.158;2024-01-25T12:36:19;24.90;;;6.40;;
69754;SDS011;57023;52.218;5.158;2024-01-25T12:38:44;27.52;;;6.75;;
69754;SDS011;57023;52.218;5.158;2024-01-25T12:41:09;30.27;;;9.00;;
69754;SDS011;57023;52.218;5.158;2024-01-25T12:43:34;34.05;;;8.55;;
69754;SDS011;57023;52.218;5.158;2024-01-25T12:46:00;20.17;;;6.05;;
69754;SDS011;57023;52.218;5.158;2024-01-25T12:48:25;27.48;;;9.07;;
69754;SDS011;57023;52.218;5.158;2024-01-25T12:50:51;17.17;;;5.95;;
69754;SDS011;57023;52.218;5.158;2024-01-25T12:53:16;18.17;;;5.28;;
69754;SDS011;57023;52.218;5.158;2024-01-25T12:55:42;19.95;;;7.03;;
69754;SDS011;57023;52.218;5.158;2024-01-25T12:58:07;25.63;;;6.97;;
69754;SDS011;57023;52.218;5.158;2024-01-25T13:00:33;18.35;;;6.40;;
69754;SDS011;57023;52.218;5.158;2024-01-25T13:02:58;22.05;;;6.28;;
69754;SDS011;57023;52.218;5.158;2024-01-25T13:05:23;25.67;;;7.28;;
69754;SDS011;57023;52.218;5.158;2024-01-25T13:07:49;26.48;;;7.07;;
69754;SDS011;57023;52.218;5.158;2024-01-25T13:10:15;20.83;;;7.63;;
69754;SDS011;57023;52.218;5.158;2024-01-25T13:12:43;26.15;;;7.03;;
69754;SDS011;57023;52.218;5.158;2024-01-25T13:15:08;22.40;;;5.75;;
69754;SDS011;57023;52.218;5.158;2024-01-25T13:17:34;20.63;;;5.93;;
69754;SDS011;57023;52.218;5.158;2024-01-25T13:20:00;27.42;;;8.63;;
69754;SDS011;57023;52.218;5.158;2024-01-25T13:22:25;20.67;;;6.80;;
69754;SDS011;57023;52.218;5.158;2024-01-25T13:24:51;25.77;;;7.38;;
69754;SDS011;57023;52.218;5.158;2024-01-25T13:27:16;27.50;;;7.35;;
69754;SDS011;57023;52.218;5.158;2024-01-25T13:29:41;21.95;;;6.40;;
69754;SDS011;57023;52.218;5.158;2024-01-25T13:32:07;26.73;;;7.55;;
69754;SDS011;57023;52.218;5.158;2024-01-25T13:34:33;20.02;;;6.47;;
69754;SDS011;57023;52.218;5.158;2024-01-25T13:37:04;24.80;;;6.20;;
69754;SDS011;57023;52.218;5.158;2024-01-25T13:39:30;33.72;;;7.53;;
69754;SDS011;57023;52.218;5.158;2024-01-25T13:41:55;23.02;;;7.07;;
69754;SDS011;57023;52.218;5.158;2024-01-25T13:44:21;28.92;;;7.35;;
69754;SDS011;57023;52.218;5.158;2024-01-25T13:46:46;29.77;;;7.93;;
69754;SDS011;57023;52.218;5.158;2024-01-25T13:49:12;21.38;;;6.43;;
69754;SDS011;57023;52.218;5.158;2024-01-25T13:51:37;26.98;;;7.20;;
69754;SDS011;57023;52.218;5.158;2024-01-25T13:54:03;29.50;;;7.28;;
69754;SDS011;57023;52.218;5.158;2024-01-25T13:56:28;29.95;;;7.40;;
69754;SDS011;57023;52.218;5.158;2024-01-25T13:58:53;23.48;;;6.22;;
69754;SDS011;57023;52.218;5.158;2024-01-25T14:01:19;21.92;;;6.00;;
69754;SDS011;57023;52.218;5.158;2024-01-25T14:03:44;26.67;;;8.10;;
69754;SDS011;57023;52.218;5.158;2024-01-25T14:06:10;23.70;;;6.35;;
69754;SDS011;57023;52.218;5.158;2024-01-25T14:08:35;27.00;;;7.32;;
69754;SDS011;57023;52.218;5.158;2024-01-25T14:11:01;25.45;;;5.47;;
69754;SDS011;57023;52.218;5.158;2024-01-25T14:13:27;26.50;;;6.45;;
69754;SDS011;57023;52.218;5.158;2024-01-25T14:15:52;29.45;;;6.88;;
69754;SDS011;57023;52.218;5.158;2024-01-25T14:18:17;33.45;;;7.43;;
69754;SDS011;57023;52.218;5.158;2024-01-25T14:20:43;26.52;;;7.30;;
69754;SDS011;57023;52.218;5.158;2024-01-25T14:23:11;25.95;;;6.85;;
69754;SDS011;57023;52.218;5.158;2024-01-25T14:25:36;23.30;;;7.35;;